Time;durP1;ratioP1;P1;durP2;ratioP2;P2;SDS_P1;SDS_P2;PMS_P1;PMS_P2;Temp;Humidity;BMP_temperature;BMP_pressure;BME280_temperature;BME280_humidity;BME280_pressure;Samples;Min_cycle;Max_cycle;Signal;HPM_P1;HPM_P2
2023/09/20 00:01:50;;;;;;;0.70;0.70;;;;;;;;;;5114352;28;20512;-65
2023/09/20 00:04:17;;;;;;;2.20;2.10;;;;;;;;;;5114381;28;20440;-64
2023/09/20 00:06:45;;;;;;;1.23;1.23;;;;;;;;;;5113968;28;20443;-65
2023/09/20 00:09:13;;;;;;;0.70;0.70;;;;;;;;;;5114319;28;20450;-64
2023/09/20 00:11:43;;;;;;;0.70;0.70;;;;;;;;;;5114232;28;20441;-64
2023/09/20 00:14:10;;;;;;;0.70;0.70;;;;;;;;;;5114103;28;20441;-64
2023/09/20 00:16:37;;;;;;;0.70;0.70;;;;;;;;;;5114123;28;20439;-64
2023/09/20 00:19:04;;;;;;;0.70;0.70;;;;;;;;;;5113882;28;20481;-64
2023/09/20 00:21:32;;;;;;;0.70;0.70;;;;;;;;;;5114141;28;20790;-64
2023/09/20 00:23:59;;;;;;;0.70;0.70;;;;;;;;;;5113954;28;20498;-64
2023/09/20 00:26:26;;;;;;;0.70;0.70;;;;;;;;;;5114104;28;20498;-64
2023/09/20 00:29:03;;;;;;;0.70;0.70;;;;;;;;;;5113841;28;20441;-64
2023/09/20 00:31:31;;;;;;;0.70;0.70;;;;;;;;;;5113503;28;20431;-64
2023/09/20 00:33:58;;;;;;;0.70;0.70;;;;;;;;;;5113555;28;20629;-64
2023/09/20 00:36:26;;;;;;;0.70;0.70;;;;;;;;;;5113935;28;20445;-64
2023/09/20 00:38:53;;;;;;;0.70;0.70;;;;;;;;;;5113681;28;20493;-64
2023/09/20 00:41:21;;;;;;;0.70;0.70;;;;;;;;;;5114271;28;20779;-64
2023/09/20 00:43:52;;;;;;;0.70;0.70;;;;;;;;;;5113762;28;20440;-64
2023/09/20 00:46:21;;;;;;;0.90;0.90;;;;;;;;;;5113904;28;20434;-64
2023/09/20 00:48:50;;;;;;;0.70;0.70;;;;;;;;;;5113321;28;20947;-64
2023/09/20 00:51:18;;;;;;;0.70;0.70;;;;;;;;;;5113592;28;20446;-65
2023/09/20 00:53:45;;;;;;;0.70;0.70;;;;;;;;;;5113731;28;20454;-64
2023/09/20 00:56:13;;;;;;;0.70;0.70;;;;;;;;;;5113387;28;20526;-64
2023/09/20 00:58:40;;;;;;;0.70;0.70;;;;;;;;;;5113161;28;20483;-64
2023/09/20 01:01:09;;;;;;;0.70;0.70;;;;;;;;;;5113398;28;20441;-64
2023/09/20 01:03:38;;;;;;;0.70;0.70;;;;;;;;;;5112919;28;20527;-64
2023/09/20 01:06:05;;;;;;;0.70;0.70;;;;;;;;;;5113766;28;20442;-64
2023/09/20 01:08:33;;;;;;;0.70;0.70;;;;;;;;;;5113101;28;20449;-64
2023/09/20 01:11:01;;;;;;;0.70;0.70;;;;;;;;;;5113321;28;20486;-64
2023/09/20 01:13:28;;;;;;;0.70;0.70;;;;;;;;;;5113038;28;20525;-64
2023/09/20 01:15:56;;;;;;;0.70;0.70;;;;;;;;;;5113080;28;20440;-64
2023/09/20 01:18:23;;;;;;;0.80;0.80;;;;;;;;;;5113215;28;20481;-64
2023/09/20 01:20:51;;;;;;;0.70;0.70;;;;;;;;;;5113684;28;20439;-64
2023/09/20 01:23:20;;;;;;;0.70;0.70;;;;;;;;;;5113241;28;20532;-64
2023/09/20 01:25:48;;;;;;;0.70;0.70;;;;;;;;;;5132997;28;20472;-64
2023/09/20 01:28:15;;;;;;;0.70;0.70;;;;;;;;;;5133691;28;20522;-64
2023/09/20 01:30:43;;;;;;;0.70;0.70;;;;;;;;;;5133790;28;20438;-64
2023/09/20 01:33:12;;;;;;;0.70;0.70;;;;;;;;;;5133334;28;20436;-64
2023/09/20 01:35:40;;;;;;;0.70;0.70;;;;;;;;;;5133411;28;20941;-64
2023/09/20 01:38:09;;;;;;;0.70;0.70;;;;;;;;;;5133512;28;20443;-64
2023/09/20 01:40:39;;;;;;;0.70;0.70;;;;;;;;;;5136672;27;20444;-64
2023/09/20 01:43:06;;;;;;;0.70;0.70;;;;;;;;;;5137583;27;20805;-64
2023/09/20 01:45:35;;;;;;;0.70;0.70;;;;;;;;;;5137780;27;20445;-64
2023/09/20 01:48:06;;;;;;;0.70;0.70;;;;;;;;;;5137274;27;20523;-64
2023/09/20 01:50:34;;;;;;;0.70;0.70;;;;;;;;;;5137265;27;20468;-64
2023/09/20 01:53:05;;;;;;;0.70;0.70;;;;;;;;;;5137570;27;20448;-64
2023/09/20 01:55:32;;;;;;;0.70;0.70;;;;;;;;;;5138003;27;20512;-64
2023/09/20 01:58:03;;;;;;;0.70;0.70;;;;;;;;;;5137284;27;20444;-64
2023/09/20 02:00:36;;;;;;;0.70;0.70;;;;;;;;;;5137621;27;20420;-64
2023/09/20 02:03:10;;;;;;;0.70;0.70;;;;;;;;;;5137594;27;20430;-64
2023/09/20 02:05:37;;;;;;;0.70;0.70;;;;;;;;;;5137550;27;20841;-64
2023/09/20 02:08:05;;;;;;;0.70;0.70;;;;;;;;;;5137116;27;20459;-64
2023/09/20 02:10:33;;;;;;;0.70;0.70;;;;;;;;;;5137100;27;20465;-64
2023/09/20 02:13:01;;;;;;;0.70;0.70;;;;;;;;;;5136924;27;20863;-64
2023/09/20 02:15:29;;;;;;;0.70;0.70;;;;;;;;;;5137123;27;20436;-64
2023/09/20 02:17:57;;;;;;;0.70;0.70;;;;;;;;;;5137232;27;20437;-64
2023/09/20 02:20:25;;;;;;;0.70;0.70;;;;;;;;;;5137140;27;20492;-64
2023/09/20 02:22:53;;;;;;;0.70;0.70;;;;;;;;;;5136702;27;20452;-64
2023/09/20 02:25:21;;;;;;;0.70;0.70;;;;;;;;;;5137139;27;20858;-64
2023/09/20 02:27:49;;;;;;;0.70;0.70;;;;;;;;;;5136808;27;20524;-64
2023/09/20 02:30:19;;;;;;;0.70;0.70;;;;;;;;;;5137074;27;20440;-64
2023/09/20 02:32:49;;;;;;;0.70;0.70;;;;;;;;;;5137104;27;20737;-64
2023/09/20 02:35:16;;;;;;;0.70;0.70;;;;;;;;;;5136740;27;20441;-64
2023/09/20 02:37:45;;;;;;;0.70;0.70;;;;;;;;;;5137176;27;20447;-64
2023/09/20 02:40:13;;;;;;;0.70;0.70;;;;;;;;;;5136935;27;20476;-64
2023/09/20 02:42:44;;;;;;;0.70;0.70;;;;;;;;;;5136190;27;20473;-64
2023/09/20 02:45:12;;;;;;;0.70;0.70;;;;;;;;;;5136581;27;20501;-64
2023/09/20 02:47:41;;;;;;;0.70;0.70;;;;;;;;;;5136104;27;20441;-64
2023/09/20 02:50:10;;;;;;;0.70;0.70;;;;;;;;;;5135524;27;20448;-64
2023/09/20 02:52:37;;;;;;;0.70;0.70;;;;;;;;;;5136070;27;20898;-64
2023/09/20 02:55:07;;;;;;;0.70;0.70;;;;;;;;;;5136379;27;20439;-64
2023/09/20 02:57:35;;;;;;;0.70;0.70;;;;;;;;;;5136059;27;20446;-64
2023/09/20 03:00:14;;;;;;;0.70;0.70;;;;;;;;;;5136446;27;20470;-64
2023/09/20 03:02:45;;;;;;;0.70;0.70;;;;;;;;;;5136080;27;20477;-64
2023/09/20 03:05:13;;;;;;;0.80;0.80;;;;;;;;;;5136140;27;20441;-64
2023/09/20 03:07:41;;;;;;;0.70;0.70;;;;;;;;;;5136156;27;20424;-65
2023/09/20 03:10:12;;;;;;;0.70;0.70;;;;;;;;;;5135908;27;20849;-65
2023/09/20 03:12:40;;;;;;;0.70;0.70;;;;;;;;;;5135954;27;20900;-65
2023/09/20 03:15:10;;;;;;;0.70;0.70;;;;;;;;;;5136026;27;20464;-65
2023/09/20 03:17:39;;;;;;;0.70;0.70;;;;;;;;;;5135908;27;20425;-64
2023/09/20 03:20:11;;;;;;;0.80;0.80;;;;;;;;;;5135856;27;20476;-64
2023/09/20 03:22:38;;;;;;;0.80;0.80;;;;;;;;;;5136375;27;20449;-64
2023/09/20 03:25:07;;;;;;;0.70;0.70;;;;;;;;;;5135217;27;20483;-64
2023/09/20 03:27:35;;;;;;;0.70;0.70;;;;;;;;;;5135372;27;20458;-64
2023/09/20 03:30:03;;;;;;;0.70;0.70;;;;;;;;;;5135214;27;20529;-66
2023/09/20 03:32:30;;;;;;;0.80;0.80;;;;;;;;;;5135326;27;20914;-64
2023/09/20 03:34:59;;;;;;;0.70;0.70;;;;;;;;;;5135136;27;20532;-64
2023/09/20 03:37:32;;;;;;;0.70;0.70;;;;;;;;;;5135572;27;20466;-64
2023/09/20 03:39:59;;;;;;;0.80;0.80;;;;;;;;;;5135021;27;20516;-64
2023/09/20 03:42:27;;;;;;;0.80;0.80;;;;;;;;;;5135728;27;20532;-65
2023/09/20 03:44:54;;;;;;;0.80;0.80;;;;;;;;;;5135031;27;20448;-64
2023/09/20 03:47:21;;;;;;;0.70;0.70;;;;;;;;;;5135775;27;20432;-63
2023/09/20 03:49:51;;;;;;;0.80;0.80;;;;;;;;;;5135573;27;20794;-63
2023/09/20 03:52:19;;;;;;;0.80;0.80;;;;;;;;;;5135975;27;20543;-63
2023/09/20 03:54:51;;;;;;;0.70;0.70;;;;;;;;;;5134629;27;20555;-63
2023/09/20 03:57:19;;;;;;;0.70;0.70;;;;;;;;;;5134263;27;20823;-64
2023/09/20 03:59:47;;;;;;;0.80;0.80;;;;;;;;;;5134071;27;20512;-64
2023/09/20 04:02:14;;;;;;;0.70;0.70;;;;;;;;;;5133409;27;20957;-64
2023/09/20 04:04:41;;;;;;;0.77;0.77;;;;;;;;;;5133758;27;20472;-64
2023/09/20 04:07:09;;;;;;;0.70;0.70;;;;;;;;;;5134299;27;20777;-64
2023/09/20 04:09:36;;;;;;;0.70;0.70;;;;;;;;;;5134295;27;20432;-64
2023/09/20 04:12:05;;;;;;;0.70;0.70;;;;;;;;;;5134651;27;20520;-63
2023/09/20 04:14:33;;;;;;;0.70;0.70;;;;;;;;;;5134208;27;20437;-64
2023/09/20 04:17:00;;;;;;;0.80;0.80;;;;;;;;;;5134214;27;20779;-64
2023/09/20 04:19:27;;;;;;;0.80;0.80;;;;;;;;;;5134359;27;20479;-64
2023/09/20 04:21:55;;;;;;;0.80;0.80;;;;;;;;;;5134197;27;20866;-63
2023/09/20 04:24:23;;;;;;;0.70;0.70;;;;;;;;;;5134207;27;20471;-64
2023/09/20 04:26:50;;;;;;;0.80;0.80;;;;;;;;;;5134125;27;20521;-64
2023/09/20 04:29:19;;;;;;;0.70;0.70;;;;;;;;;;5134082;27;20535;-64
2023/09/20 04:31:46;;;;;;;0.70;0.70;;;;;;;;;;5133814;27;20447;-69
2023/09/20 04:34:15;;;;;;;0.80;0.80;;;;;;;;;;5134157;27;20817;-63
2023/09/20 04:36:44;;;;;;;0.70;0.70;;;;;;;;;;5133916;27;20449;-63
2023/09/20 04:39:11;;;;;;;0.70;0.70;;;;;;;;;;5133774;27;20438;-63
2023/09/20 04:41:39;;;;;;;0.70;0.70;;;;;;;;;;5134229;27;20791;-63
2023/09/20 04:44:07;;;;;;;0.80;0.80;;;;;;;;;;5134383;27;20530;-64
2023/09/20 04:46:36;;;;;;;0.70;0.70;;;;;;;;;;5134044;27;20450;-64
2023/09/20 04:49:04;;;;;;;0.70;0.70;;;;;;;;;;5133750;27;20531;-64
2023/09/20 04:51:32;;;;;;;0.70;0.70;;;;;;;;;;5133867;27;20796;-64
2023/09/20 04:53:59;;;;;;;0.70;0.70;;;;;;;;;;5134429;27;20445;-64
2023/09/20 04:56:27;;;;;;;0.70;0.70;;;;;;;;;;5133573;27;20487;-64
2023/09/20 04:58:57;;;;;;;0.70;0.70;;;;;;;;;;5133363;27;20843;-63
2023/09/20 05:01:24;;;;;;;0.70;0.70;;;;;;;;;;5133458;27;20480;-63
2023/09/20 05:03:53;;;;;;;0.80;0.80;;;;;;;;;;5133847;27;20560;-63
2023/09/20 05:06:20;;;;;;;0.80;0.80;;;;;;;;;;5133576;27;20528;-63
2023/09/20 05:08:50;;;;;;;0.70;0.70;;;;;;;;;;5133827;28;20437;-64
2023/09/20 05:11:18;;;;;;;0.70;0.70;;;;;;;;;;5133129;28;20436;-63
2023/09/20 05:13:46;;;;;;;0.70;0.70;;;;;;;;;;5133148;27;20435;-64
2023/09/20 05:16:13;;;;;;;0.70;0.70;;;;;;;;;;5137762;27;20480;-64
2023/09/20 05:18:40;;;;;;;0.70;0.70;;;;;;;;;;5137491;27;20442;-63
2023/09/20 05:21:10;;;;;;;0.80;0.80;;;;;;;;;;5137662;27;20514;-63
2023/09/20 05:23:40;;;;;;;0.70;0.70;;;;;;;;;;5137797;27;20444;-64
2023/09/20 05:26:07;;;;;;;0.70;0.70;;;;;;;;;;5137500;27;20422;-63
2023/09/20 05:28:35;;;;;;;0.70;0.70;;;;;;;;;;5137718;27;20477;-63
2023/09/20 05:31:03;;;;;;;0.70;0.70;;;;;;;;;;5137288;27;20440;-63
2023/09/20 05:33:30;;;;;;;0.70;0.70;;;;;;;;;;5137547;27;20794;-63
2023/09/20 05:35:58;;;;;;;0.70;0.70;;;;;;;;;;5137951;27;20440;-64
2023/09/20 05:38:27;;;;;;;0.70;0.70;;;;;;;;;;5137058;27;20442;-64
2023/09/20 05:40:54;;;;;;;0.70;0.70;;;;;;;;;;5137490;27;20849;-63
2023/09/20 05:43:22;;;;;;;0.70;0.70;;;;;;;;;;5137674;27;20526;-63
2023/09/20 05:45:49;;;;;;;0.80;0.80;;;;;;;;;;5137366;27;20441;-64
2023/09/20 05:48:16;;;;;;;0.80;0.80;;;;;;;;;;5137688;27;20537;-64
2023/09/20 05:50:44;;;;;;;0.70;0.70;;;;;;;;;;5137225;27;20440;-64
2023/09/20 05:53:11;;;;;;;0.90;0.90;;;;;;;;;;5137669;27;20451;-63
2023/09/20 05:55:40;;;;;;;0.70;0.70;;;;;;;;;;5137308;27;20441;-63
2023/09/20 05:58:08;;;;;;;1.13;1.13;;;;;;;;;;5136998;27;20786;-63
2023/09/20 06:00:35;;;;;;;0.70;0.70;;;;;;;;;;5136951;27;20479;-64
2023/09/20 06:03:04;;;;;;;0.70;0.70;;;;;;;;;;5137275;27;20437;-64
2023/09/20 06:05:33;;;;;;;0.70;0.70;;;;;;;;;;5137846;27;20458;-64
2023/09/20 06:08:01;;;;;;;0.80;0.80;;;;;;;;;;5136936;27;20440;-63
2023/09/20 06:10:28;;;;;;;0.70;0.70;;;;;;;;;;5136944;27;20443;-63
2023/09/20 06:12:56;;;;;;;0.70;0.70;;;;;;;;;;5137069;27;20438;-63
2023/09/20 06:15:23;;;;;;;0.70;0.70;;;;;;;;;;5136721;27;20522;-63
2023/09/20 06:17:51;;;;;;;0.80;0.80;;;;;;;;;;5136555;27;20866;-64
2023/09/20 06:20:20;;;;;;;0.70;0.70;;;;;;;;;;5136877;27;20596;-64
2023/09/20 06:22:48;;;;;;;0.80;0.80;;;;;;;;;;5136929;27;20748;-64
2023/09/20 06:25:16;;;;;;;0.70;0.70;;;;;;;;;;5136765;27;20472;-64
2023/09/20 06:27:43;;;;;;;0.70;0.70;;;;;;;;;;5136371;27;20444;-63
2023/09/20 06:30:13;;;;;;;0.70;0.70;;;;;;;;;;5136189;27;20450;-63
2023/09/20 06:32:41;;;;;;;0.73;0.73;;;;;;;;;;5136757;27;20423;-63
2023/09/20 06:35:09;;;;;;;0.70;0.70;;;;;;;;;;5136295;27;20447;-63
2023/09/20 06:37:38;;;;;;;0.70;0.70;;;;;;;;;;5136313;27;20441;-63
2023/09/20 06:40:16;;;;;;;0.70;0.70;;;;;;;;;;5136454;27;20544;-64
2023/09/20 06:42:43;;;;;;;0.70;0.70;;;;;;;;;;5136155;27;20427;-63
2023/09/20 06:45:12;;;;;;;0.70;0.70;;;;;;;;;;5136019;27;20434;-63
2023/09/20 06:47:40;;;;;;;0.70;0.70;;;;;;;;;;5135887;27;20695;-63
2023/09/20 06:50:08;;;;;;;0.70;0.70;;;;;;;;;;5135890;27;20445;-64
2023/09/20 06:52:35;;;;;;;1.33;1.23;;;;;;;;;;5136084;27;20453;-64
2023/09/20 06:55:03;;;;;;;0.70;0.70;;;;;;;;;;5136404;27;20484;-64
2023/09/20 06:57:31;;;;;;;0.80;0.80;;;;;;;;;;5135806;27;20532;-64
2023/09/20 06:59:58;;;;;;;0.70;0.70;;;;;;;;;;5135964;27;20840;-64
2023/09/20 07:02:27;;;;;;;0.70;0.70;;;;;;;;;;5136009;27;20451;-64
2023/09/20 07:04:55;;;;;;;0.70;0.70;;;;;;;;;;5136042;27;20444;-64
2023/09/20 07:07:25;;;;;;;0.70;0.70;;;;;;;;;;5135679;27;20925;-63
2023/09/20 07:09:52;;;;;;;0.70;0.70;;;;;;;;;;5135986;27;20443;-64
2023/09/20 07:12:19;;;;;;;0.70;0.70;;;;;;;;;;5135776;27;20525;-64
2023/09/20 07:14:47;;;;;;;0.70;0.70;;;;;;;;;;5135639;27;20537;-64
2023/09/20 07:17:15;;;;;;;0.70;0.70;;;;;;;;;;5135468;27;20803;-65
2023/09/20 07:19:47;;;;;;;0.70;0.70;;;;;;;;;;5135653;27;20440;-65
2023/09/20 07:22:14;;;;;;;0.90;0.90;;;;;;;;;;5135219;27;20466;-65
2023/09/20 07:24:45;;;;;;;0.70;0.70;;;;;;;;;;5135975;27;20523;-65
2023/09/20 07:27:12;;;;;;;0.70;0.70;;;;;;;;;;5135992;27;20825;-64
2023/09/20 07:29:41;;;;;;;0.70;0.70;;;;;;;;;;5135624;27;20438;-65
2023/09/20 07:32:11;;;;;;;0.77;0.77;;;;;;;;;;5135275;27;20961;-64
2023/09/20 07:34:38;;;;;;;0.70;0.70;;;;;;;;;;5134486;27;20444;-65
2023/09/20 07:37:07;;;;;;;0.80;0.80;;;;;;;;;;5134608;27;20529;-64
2023/09/20 07:39:34;;;;;;;0.70;0.70;;;;;;;;;;5134819;27;21058;-64
2023/09/20 07:42:02;;;;;;;0.77;0.77;;;;;;;;;;5135154;27;20576;-65
2023/09/20 07:44:35;;;;;;;0.70;0.70;;;;;;;;;;5135291;27;20439;-64
2023/09/20 07:47:03;;;;;;;0.70;0.70;;;;;;;;;;5135226;27;20481;-64
2023/09/20 07:49:32;;;;;;;0.70;0.70;;;;;;;;;;5134872;27;20449;-64
2023/09/20 07:52:00;;;;;;;0.70;0.70;;;;;;;;;;5135195;27;20538;-64
2023/09/20 07:54:28;;;;;;;0.70;0.70;;;;;;;;;;5134558;27;20453;-64
2023/09/20 07:56:56;;;;;;;0.70;0.70;;;;;;;;;;5134652;27;20442;-64
2023/09/20 07:59:26;;;;;;;0.70;0.70;;;;;;;;;;5134811;27;20476;-64
2023/09/20 08:01:54;;;;;;;0.70;0.70;;;;;;;;;;5134505;27;21028;-64
2023/09/20 08:04:23;;;;;;;0.70;0.70;;;;;;;;;;5134700;27;20800;-64
2023/09/20 08:06:50;;;;;;;0.70;0.70;;;;;;;;;;5134808;27;20443;-64
2023/09/20 08:09:17;;;;;;;0.70;0.70;;;;;;;;;;5134427;27;20535;-64
2023/09/20 08:11:46;;;;;;;0.70;0.70;;;;;;;;;;5134867;27;20441;-64
2023/09/20 08:14:14;;;;;;;0.70;0.70;;;;;;;;;;5134111;27;20474;-64
2023/09/20 08:16:42;;;;;;;0.70;0.70;;;;;;;;;;5134714;27;20437;-64
2023/09/20 08:19:20;;;;;;;0.70;0.70;;;;;;;;;;5134066;27;20525;-65
2023/09/20 08:21:48;;;;;;;0.70;0.70;;;;;;;;;;5134117;27;20461;-64
2023/09/20 09:00:21;;;;;;;0.80;0.80;;;;;;;;;;5133900;27;20433;-61
2023/09/20 09:02:50;;;;;;;0.70;0.70;;;;;;;;;;5134174;27;20922;-61
2023/09/20 09:05:17;;;;;;;0.70;0.70;;;;;;;;;;5133821;27;20917;-61
2023/09/20 09:07:44;;;;;;;0.70;0.70;;;;;;;;;;5133851;27;20430;-62
2023/09/20 09:10:13;;;;;;;0.70;0.70;;;;;;;;;;5133657;28;20524;-61
2023/09/20 09:12:40;;;;;;;0.70;0.70;;;;;;;;;;5133476;28;20452;-61
2023/09/20 09:15:09;;;;;;;0.70;0.70;;;;;;;;;;5133936;28;20540;-61
2023/09/20 09:17:41;;;;;;;0.70;0.70;;;;;;;;;;5133826;28;20434;-62
2023/09/20 09:20:10;;;;;;;0.70;0.70;;;;;;;;;;5133970;28;20510;-62
2023/09/20 09:22:37;;;;;;;0.70;0.70;;;;;;;;;;5133922;28;20592;-62
2023/09/20 09:25:10;;;;;;;0.70;0.70;;;;;;;;;;5133881;28;20472;-62
2023/09/20 09:27:39;;;;;;;0.70;0.70;;;;;;;;;;5133517;28;20420;-62
2023/09/20 09:30:07;;;;;;;0.70;0.70;;;;;;;;;;5133377;28;20444;-62
2023/09/20 09:32:36;;;;;;;0.70;0.70;;;;;;;;;;5133461;28;20951;-62
2023/09/20 09:35:06;;;;;;;0.70;0.70;;;;;;;;;;5133605;28;20522;-61
2023/09/20 09:37:34;;;;;;;0.70;0.70;;;;;;;;;;5133766;28;20436;-61
2023/09/20 09:40:02;;;;;;;0.70;0.70;;;;;;;;;;5133608;28;20773;-62
2023/09/20 09:42:29;;;;;;;0.70;0.70;;;;;;;;;;5133304;28;20568;-62
2023/09/20 09:44:56;;;;;;;0.70;0.70;;;;;;;;;;5133986;28;20464;-62
2023/09/20 09:47:24;;;;;;;1.03;1.03;;;;;;;;;;5133994;28;20848;-62
2023/09/20 09:49:53;;;;;;;0.80;0.80;;;;;;;;;;5133531;28;20449;-62
2023/09/20 09:52:23;;;;;;;0.70;0.70;;;;;;;;;;5133625;28;20552;-61
2023/09/20 09:54:52;;;;;;;0.70;0.70;;;;;;;;;;5133242;28;20441;-61
2023/09/20 09:57:19;;;;;;;0.70;0.70;;;;;;;;;;5133937;28;20815;-62
2023/09/20 09:59:46;;;;;;;0.70;0.70;;;;;;;;;;5133611;27;20913;-62
2023/09/20 10:02:17;;;;;;;0.70;0.70;;;;;;;;;;5137694;27;20475;-62
2023/09/20 10:04:46;;;;;;;0.70;0.70;;;;;;;;;;5136893;27;20432;-62
2023/09/20 10:07:16;;;;;;;0.70;0.70;;;;;;;;;;5137324;27;20445;-61
2023/09/20 10:09:49;;;;;;;0.70;0.70;;;;;;;;;;5137439;27;20454;-62
2023/09/20 10:12:17;;;;;;;0.70;0.70;;;;;;;;;;5137372;27;20445;-62
2023/09/20 10:14:44;;;;;;;0.70;0.70;;;;;;;;;;5137091;27;20532;-62
2023/09/20 10:17:15;;;;;;;0.70;0.70;;;;;;;;;;5137210;27;20548;-61
2023/09/20 10:19:42;;;;;;;0.77;0.77;;;;;;;;;;5137072;27;20926;-62
2023/09/20 10:22:11;;;;;;;0.70;0.70;;;;;;;;;;5136992;27;20966;-62
2023/09/20 10:24:50;;;;;;;0.70;0.70;;;;;;;;;;5137026;27;20831;-62
2023/09/20 10:27:19;;;;;;;0.70;0.70;;;;;;;;;;5137450;27;20422;-62
2023/09/20 10:29:59;;;;;;;0.70;0.70;;;;;;;;;;5137019;27;20449;-62
2023/09/20 10:32:30;;;;;;;0.70;0.70;;;;;;;;;;5136830;27;20430;-62
2023/09/20 10:35:18;;;;;;;0.70;0.70;;;;;;;;;;5137007;27;20497;-62
2023/09/20 10:37:58;;;;;;;0.70;0.70;;;;;;;;;;5137109;27;20439;-62
2023/09/20 10:40:48;;;;;;;0.70;0.70;;;;;;;;;;5136728;27;20436;-62
2023/09/20 10:43:16;;;;;;;0.70;0.70;;;;;;;;;;5136373;27;20430;-62
2023/09/20 10:45:44;;;;;;;0.70;0.70;;;;;;;;;;5136681;27;20479;-61
2023/09/20 10:48:12;;;;;;;0.70;0.70;;;;;;;;;;5136532;27;20790;-61
2023/09/20 10:50:49;;;;;;;0.70;0.70;;;;;;;;;;5136266;27;20466;-62
2023/09/20 10:53:18;;;;;;;0.80;0.80;;;;;;;;;;5136351;27;20930;-62
2023/09/20 10:55:47;;;;;;;0.70;0.70;;;;;;;;;;5136023;27;20479;-62
2023/09/20 10:58:17;;;;;;;0.70;0.70;;;;;;;;;;5136089;27;20462;-68
2023/09/20 11:00:45;;;;;;;0.70;0.70;;;;;;;;;;5136169;27;20463;-64
2023/09/20 11:03:13;;;;;;;0.70;0.70;;;;;;;;;;5135692;27;20990;-64
2023/09/20 11:05:40;;;;;;;0.70;0.70;;;;;;;;;;5135494;27;20443;-64
2023/09/20 11:08:08;;;;;;;0.70;0.70;;;;;;;;;;5135998;27;20490;-64
2023/09/20 11:10:36;;;;;;;0.70;0.70;;;;;;;;;;5136017;27;20469;-64
2023/09/20 11:13:08;;;;;;;0.80;0.80;;;;;;;;;;5129254;27;20455;-64
2023/09/20 11:15:41;;;;;;;0.80;0.80;;;;;;;;;;5115723;28;20463;-64
2023/09/20 11:18:08;;;;;;;0.70;0.70;;;;;;;;;;5115105;28;20936;-64
2023/09/20 11:20:36;;;;;;;0.80;0.80;;;;;;;;;;5115293;28;20533;-64
2023/09/20 11:23:03;;;;;;;0.70;0.70;;;;;;;;;;5114763;28;20979;-64
2023/09/20 11:25:31;;;;;;;0.70;0.70;;;;;;;;;;5114586;28;20562;-64
2023/09/20 11:27:58;;;;;;;0.70;0.67;;;;;;;;;;5115074;28;20433;-64
2023/09/20 11:30:28;;;;;;;0.70;0.70;;;;;;;;;;5114954;28;20523;-64
2023/09/20 11:32:56;;;;;;;0.70;0.70;;;;;;;;;;5115105;28;20466;-64
2023/09/20 11:35:37;;;;;;;0.70;0.70;;;;;;;;;;5114582;28;20435;-64
2023/09/20 11:38:04;;;;;;;0.70;0.70;;;;;;;;;;5115080;28;20431;-64
2023/09/20 11:40:33;;;;;;;0.70;0.70;;;;;;;;;;5114689;28;20842;-64
2023/09/20 11:43:01;;;;;;;0.70;0.70;;;;;;;;;;5114516;28;20561;-63
2023/09/20 11:45:29;;;;;;;0.70;0.70;;;;;;;;;;5114653;28;20521;-64
2023/09/20 11:47:57;;;;;;;0.70;0.70;;;;;;;;;;5114500;28;20442;-63
2023/09/20 11:50:25;;;;;;;0.70;0.70;;;;;;;;;;5114577;28;20439;-64
2023/09/20 11:52:53;;;;;;;0.70;0.70;;;;;;;;;;5114122;28;20936;-64
2023/09/20 11:55:21;;;;;;;0.70;0.70;;;;;;;;;;5114410;28;20483;-64
2023/09/20 11:57:49;;;;;;;0.70;0.70;;;;;;;;;;5114116;28;20489;-63
2023/09/20 12:00:17;;;;;;;0.70;0.70;;;;;;;;;;5114114;28;20439;-64
2023/09/20 12:02:46;;;;;;;0.70;0.70;;;;;;;;;;5114008;28;20474;-64
2023/09/20 12:05:13;;;;;;;0.70;0.70;;;;;;;;;;5113797;28;20443;-64
2023/09/20 12:07:42;;;;;;;0.70;0.70;;;;;;;;;;5114268;28;20541;-64
2023/09/20 12:10:10;;;;;;;0.70;0.70;;;;;;;;;;5113813;28;20538;-64
2023/09/20 12:12:38;;;;;;;0.70;0.70;;;;;;;;;;5114029;28;20459;-64
2023/09/20 12:15:06;;;;;;;0.70;0.70;;;;;;;;;;5114108;28;20470;-64
2023/09/20 12:17:33;;;;;;;0.70;0.70;;;;;;;;;;5114093;28;20523;-64
2023/09/20 12:20:04;;;;;;;0.70;0.70;;;;;;;;;;5113715;28;20451;-64
2023/09/20 12:22:31;;;;;;;0.70;0.70;;;;;;;;;;5113429;28;20471;-64
2023/09/20 12:24:58;;;;;;;0.70;0.67;;;;;;;;;;5113721;28;21043;-64
2023/09/20 12:27:26;;;;;;;0.70;0.70;;;;;;;;;;5113899;28;20519;-64
2023/09/20 12:29:53;;;;;;;0.70;0.70;;;;;;;;;;5113844;28;20850;-64
2023/09/20 12:32:20;;;;;;;0.77;0.77;;;;;;;;;;5113739;28;20448;-64
2023/09/20 12:34:47;;;;;;;0.70;0.70;;;;;;;;;;5113703;28;20498;-64
2023/09/20 12:37:19;;;;;;;0.80;0.80;;;;;;;;;;5113647;28;20431;-64
2023/09/20 12:39:46;;;;;;;0.70;0.70;;;;;;;;;;5113799;28;20473;-64
2023/09/20 12:42:14;;;;;;;0.70;0.70;;;;;;;;;;5113512;28;20487;-64
2023/09/20 12:44:43;;;;;;;0.70;0.70;;;;;;;;;;5113860;28;20874;-65
2023/09/20 12:47:10;;;;;;;0.70;0.70;;;;;;;;;;5113097;28;20443;-64
2023/09/20 12:49:37;;;;;;;0.77;0.77;;;;;;;;;;5113616;28;20531;-64
2023/09/20 12:52:04;;;;;;;0.70;0.70;;;;;;;;;;5113205;28;20923;-64
2023/09/20 12:54:33;;;;;;;0.70;0.70;;;;;;;;;;5113588;28;20435;-64
2023/09/20 12:57:00;;;;;;;0.70;0.60;;;;;;;;;;5113317;28;20609;-64
2023/09/20 12:59:27;;;;;;;0.70;0.70;;;;;;;;;;5113244;28;20454;-64
2023/09/20 13:01:55;;;;;;;0.70;0.70;;;;;;;;;;5113391;28;20475;-64
2023/09/20 13:04:24;;;;;;;0.70;0.70;;;;;;;;;;5113119;28;20436;-64
2023/09/20 13:06:52;;;;;;;0.70;0.70;;;;;;;;;;5112989;28;20835;-64
2023/09/20 13:09:21;;;;;;;0.70;0.70;;;;;;;;;;5113034;28;20440;-64
2023/09/20 13:11:52;;;;;;;0.70;0.60;;;;;;;;;;5112975;28;20451;-64
2023/09/20 13:14:19;;;;;;;1.27;1.17;;;;;;;;;;5113510;28;20508;-64
2023/09/20 13:16:49;;;;;;;0.70;0.70;;;;;;;;;;5112905;28;20474;-64
2023/09/20 13:19:16;;;;;;;0.70;0.70;;;;;;;;;;5113225;28;20751;-64
2023/09/20 13:21:44;;;;;;;0.70;0.60;;;;;;;;;;5113238;28;20777;-64
2023/09/20 13:24:11;;;;;;;0.70;0.70;;;;;;;;;;5112906;28;20470;-64
2023/09/20 13:26:39;;;;;;;0.70;0.60;;;;;;;;;;5113356;28;20430;-65
2023/09/20 13:29:08;;;;;;;0.70;0.70;;;;;;;;;;5113230;28;20441;-65
2023/09/20 13:31:35;;;;;;;0.70;0.70;;;;;;;;;;5113117;28;20435;-65
2023/09/20 13:34:04;;;;;;;0.70;0.70;;;;;;;;;;5113296;28;20452;-65
2023/09/20 13:36:33;;;;;;;1.90;1.67;;;;;;;;;;5116045;28;20435;-64
2023/09/20 13:39:01;;;;;;;0.70;0.70;;;;;;;;;;5117172;28;20440;-64
2023/09/20 13:41:28;;;;;;;0.70;0.70;;;;;;;;;;5117119;28;20429;-64
2023/09/20 13:43:55;;;;;;;0.70;0.70;;;;;;;;;;5116617;28;20567;-65
2023/09/20 13:46:25;;;;;;;0.70;0.70;;;;;;;;;;5123267;27;20448;-64
2023/09/20 13:48:52;;;;;;;0.80;0.80;;;;;;;;;;5137678;27;20436;-64
2023/09/20 13:51:19;;;;;;;0.70;0.70;;;;;;;;;;5137466;27;21004;-64
2023/09/20 13:53:47;;;;;;;0.70;0.70;;;;;;;;;;5137235;27;20558;-64
2023/09/20 13:56:17;;;;;;;0.70;0.70;;;;;;;;;;5137741;27;20526;-64
2023/09/20 13:58:44;;;;;;;0.70;0.70;;;;;;;;;;5137020;27;20526;-65
2023/09/20 14:01:11;;;;;;;0.73;0.73;;;;;;;;;;5137542;27;20817;-65
2023/09/20 14:03:40;;;;;;;0.70;0.70;;;;;;;;;;5136978;27;20700;-65
2023/09/20 14:06:08;;;;;;;0.70;0.70;;;;;;;;;;5137209;27;20431;-64
2023/09/20 14:08:35;;;;;;;0.70;0.70;;;;;;;;;;5137371;27;20842;-64
2023/09/20 14:11:04;;;;;;;0.80;0.80;;;;;;;;;;5137211;27;20453;-64
2023/09/20 14:13:31;;;;;;;0.70;0.70;;;;;;;;;;5136592;27;20460;-64
2023/09/20 14:15:58;;;;;;;0.70;0.60;;;;;;;;;;5136728;27;20428;-64
2023/09/20 14:18:26;;;;;;;0.70;0.70;;;;;;;;;;5137069;27;20723;-64
2023/09/20 14:20:54;;;;;;;0.70;0.70;;;;;;;;;;5137260;27;20796;-64
2023/09/20 14:23:22;;;;;;;0.70;0.70;;;;;;;;;;5136618;27;20575;-64
2023/09/20 14:25:49;;;;;;;0.70;0.70;;;;;;;;;;5136893;27;21011;-64
2023/09/20 14:28:17;;;;;;;0.80;0.80;;;;;;;;;;5136979;27;20942;-64
2023/09/20 14:30:44;;;;;;;0.70;0.70;;;;;;;;;;5136916;27;20444;-64
2023/09/20 14:33:12;;;;;;;0.70;0.70;;;;;;;;;;5136777;27;20457;-65
2023/09/20 14:35:40;;;;;;;0.73;0.73;;;;;;;;;;5136912;27;20460;-65
2023/09/20 14:38:08;;;;;;;0.70;0.70;;;;;;;;;;5136392;27;20463;-65
2023/09/20 14:40:37;;;;;;;0.70;0.70;;;;;;;;;;5136338;27;20441;-64
2023/09/20 14:43:05;;;;;;;0.70;0.70;;;;;;;;;;5136430;27;20499;-64
2023/09/20 14:45:32;;;;;;;0.70;0.70;;;;;;;;;;5136216;27;20442;-64
2023/09/20 14:48:00;;;;;;;0.70;0.70;;;;;;;;;;5136384;27;20437;-65
2023/09/20 14:50:28;;;;;;;0.70;0.70;;;;;;;;;;5136027;27;20432;-64
2023/09/20 14:52:55;;;;;;;0.70;0.70;;;;;;;;;;5136263;27;20442;-65
2023/09/20 14:55:26;;;;;;;0.70;0.70;;;;;;;;;;5136422;27;20438;-65
2023/09/20 14:57:54;;;;;;;0.70;0.70;;;;;;;;;;5136669;27;20500;-65
2023/09/20 15:00:24;;;;;;;0.70;0.70;;;;;;;;;;5136303;27;20468;-65
2023/09/20 15:02:51;;;;;;;0.70;0.70;;;;;;;;;;5136003;27;20476;-65
2023/09/20 15:05:19;;;;;;;0.70;0.70;;;;;;;;;;5136182;27;20782;-64
2023/09/20 15:07:48;;;;;;;0.70;0.70;;;;;;;;;;5136092;27;20533;-64
2023/09/20 15:10:16;;;;;;;0.70;0.60;;;;;;;;;;5136058;27;20440;-64
2023/09/20 15:12:49;;;;;;;0.70;0.70;;;;;;;;;;5135005;27;21033;-65
2023/09/20 15:15:17;;;;;;;0.70;0.70;;;;;;;;;;5135688;27;20494;-64
2023/09/20 15:17:44;;;;;;;0.70;0.70;;;;;;;;;;5135868;27;20723;-64
2023/09/20 15:20:13;;;;;;;0.70;0.70;;;;;;;;;;5135189;27;20448;-65
2023/09/20 15:22:40;;;;;;;0.70;0.70;;;;;;;;;;5135265;27;20503;-64
2023/09/20 15:25:10;;;;;;;0.70;0.70;;;;;;;;;;5135774;27;20537;-65
2023/09/20 15:27:37;;;;;;;0.70;0.70;;;;;;;;;;5135476;27;20441;-64